Time;durP1;ratioP1;P1;durP2;ratioP2;P2;SDS_P1;SDS_P2;PMS_P1;PMS_P2;Temp;Humidity;BMP_temperature;BMP_pressure;BME280_temperature;BME280_humidity;BME280_pressure;Samples;Min_cycle;Max_cycle;Signal;HPM_P1;HPM_P2
2023/06/30 04:02:57;;;;;;;5.83;3.90;;;20.90;97.30;;;;;;4952115;28;20556;-87
2023/06/30 04:05:40;;;;;;;10.07;4.87;;;21.00;97.30;;;;;;4956113;28;21012;-88
2023/06/30 04:08:08;;;;;;;6.17;3.80;;;21.00;97.30;;;;;;4954957;29;20446;-88
2023/06/30 04:10:39;;;;;;;10.50;4.43;;;21.00;97.30;;;;;;4952312;28;20475;-88
2023/06/30 04:13:07;;;;;;;6.07;3.33;;;21.00;97.30;;;;;;4935972;29;20447;-88
2023/06/30 04:15:35;;;;;;;11.70;6.17;;;21.00;97.30;;;;;;4935741;29;20420;-91
2023/06/30 04:18:01;;;;;;;6.40;4.10;;;21.00;97.30;;;;;;4935430;29;20434;-91
2023/06/30 04:20:27;;;;;;;9.73;6.27;;;21.00;97.30;;;;;;4935342;29;20428;-90
2023/06/30 04:22:52;;;;;;;8.13;4.17;;;21.00;97.30;;;;;;4935741;29;20191;-90
2023/06/30 04:25:18;;;;;;;15.50;4.77;;;21.00;97.30;;;;;;4935254;29;20450;-90
2023/06/30 04:27:43;;;;;;;6.33;4.67;;;21.00;97.30;;;;;;4934216;29;20186;-90
2023/06/30 04:30:09;;;;;;;9.30;4.57;;;21.00;97.30;;;;;;4935641;29;20188;-91
2023/06/30 04:32:35;;;;;;;6.73;4.93;;;21.00;97.30;;;;;;4934749;29;20204;-91
2023/06/30 04:35:01;;;;;;;8.20;5.50;;;21.00;97.30;;;;;;4933747;29;20426;-91
2023/06/30 04:37:29;;;;;;;9.13;5.20;;;21.00;97.30;;;;;;4928349;29;20268;-90
2023/06/30 04:39:59;;;;;;;6.33;3.83;;;21.00;97.30;;;;;;4934926;29;20428;-90
2023/06/30 04:42:29;;;;;;;8.13;4.73;;;21.00;97.30;;;;;;4935655;29;20458;-91
2023/06/30 04:44:54;;;;;;;11.50;5.80;;;21.00;97.30;;;;;;4935555;29;20895;-91
2023/06/30 04:47:20;;;;;;;6.30;3.60;;;21.10;97.30;;;;;;4935410;29;20483;-91
2023/06/30 04:49:48;;;;;;;9.13;6.80;;;21.10;97.30;;;;;;4935672;29;20196;-92
2023/06/30 04:52:19;;;;;;;20.73;6.93;;;21.10;97.30;;;;;;4933300;29;20204;-91
2023/06/30 04:54:47;;;;;;;8.43;5.23;;;21.10;97.30;;;;;;4937165;29;20431;-91
2023/06/30 04:57:18;;;;;;;5.93;4.47;;;21.10;97.30;;;;;;4934968;29;20846;-91
2023/06/30 04:59:51;;;;;;;13.07;5.53;;;21.10;97.30;;;;;;4935718;29;20551;-92
2023/06/30 05:02:19;;;;;;;11.47;4.20;;;21.10;97.30;;;;;;4936490;29;20474;-91
2023/06/30 05:04:49;;;;;;;8.43;4.47;;;21.20;97.30;;;;;;4931947;29;20436;-91
2023/06/30 05:07:21;;;;;;;5.10;4.27;;;21.20;97.30;;;;;;4936033;29;21148;-91
2023/06/30 05:09:47;;;;;;;5.90;4.40;;;21.20;97.30;;;;;;4947075;29;20416;-91
2023/06/30 05:12:14;;;;;;;6.77;4.23;;;21.30;97.30;;;;;;4953137;29;20518;-91
2023/06/30 05:14:40;;;;;;;5.97;4.60;;;21.30;97.30;;;;;;4955720;29;20182;-92
2023/06/30 05:17:08;;;;;;;12.90;6.30;;;21.30;97.30;;;;;;4946799;29;20420;-91
2023/06/30 05:19:41;;;;;;;7.80;5.93;;;21.30;97.30;;;;;;4928309;29;20188;-90
2023/06/30 05:22:08;;;;;;;10.33;6.10;;;21.40;97.30;;;;;;4933324;29;20523;-91
2023/06/30 05:24:34;;;;;;;5.87;4.47;;;21.40;97.30;;;;;;4932278;29;20477;-90
2023/06/30 05:27:01;;;;;;;6.90;4.80;;;21.40;97.30;;;;;;4926530;29;20413;-92
2023/06/30 05:29:30;;;;;;;11.10;5.40;;;21.40;97.30;;;;;;4937098;29;20207;-91
2023/06/30 05:31:56;;;;;;;7.20;4.93;;;21.40;97.30;;;;;;4937302;29;20454;-91
2023/06/30 05:34:29;;;;;;;10.90;5.17;;;21.50;97.30;;;;;;4936704;29;20415;-91
2023/06/30 05:37:00;;;;;;;12.73;5.70;;;21.50;97.30;;;;;;4936323;29;20180;-91
2023/06/30 05:39:38;;;;;;;7.93;4.20;;;21.50;97.30;;;;;;4936128;29;20428;-91
2023/06/30 05:42:28;;;;;;;5.37;5.07;;;21.50;97.30;;;;;;4936315;29;20965;-90
2023/06/30 05:45:00;;;;;;;8.87;3.87;;;21.50;97.30;;;;;;4933553;29;20423;-92
2023/06/30 05:47:49;;;;;;;4.53;4.17;;;21.50;97.30;;;;;;4928667;29;20436;-92
2023/06/30 05:50:22;;;;;;;7.37;4.13;;;21.50;97.30;;;;;;4936771;29;20606;-91
2023/06/30 05:53:11;;;;;;;5.20;2.97;;;21.50;97.30;;;;;;4935095;29;20454;-91
2023/06/30 05:55:40;;;;;;;11.77;7.10;;;21.50;97.30;;;;;;4935379;29;20435;-90
2023/06/30 05:58:20;;;;;;;10.33;6.37;;;21.50;97.30;;;;;;4933875;29;20443;-90
2023/06/30 06:00:50;;;;;;;10.33;5.53;;;21.60;97.30;;;;;;4934205;29;20447;-91
2023/06/30 06:04:00;;;;;;;8.80;5.60;;;21.60;97.30;;;;;;4933223;29;20479;-92
2023/06/30 06:06:31;;;;;;;10.10;5.77;;;21.60;97.30;;;;;;4927419;29;20474;-93
2023/06/30 06:09:00;;;;;;;9.33;4.90;;;21.70;97.30;;;;;;4934211;29;20435;-91
2023/06/30 06:11:29;;;;;;;17.43;6.43;;;21.70;97.30;;;;;;4935056;29;20479;-91
2023/06/30 06:14:01;;;;;;;4.93;3.60;;;21.70;97.30;;;;;;4933678;29;20829;-92
2023/06/30 06:16:30;;;;;;;13.20;4.30;;;21.80;97.30;;;;;;4926317;29;20470;-92
2023/06/30 06:19:31;;;;;;;5.77;3.70;;;21.80;97.30;;;;;;4932688;29;20424;-91
2023/06/30 06:21:56;;;;;;;10.73;5.00;;;21.80;97.30;;;;;;4960920;23;20584;-73
2023/06/30 06:24:22;;;;;;;13.80;5.30;;;21.90;97.30;;;;;;4967626;28;20509;-73
2023/06/30 06:26:47;;;;;;;7.83;5.27;;;21.90;97.30;;;;;;4965597;28;20330;-74
2023/06/30 06:29:18;;;;;;;6.43;4.17;;;22.00;97.30;;;;;;4965615;28;20202;-74
2023/06/30 06:31:45;;;;;;;18.80;7.40;;;22.00;97.30;;;;;;4954094;28;20223;-74
2023/06/30 06:34:11;;;;;;;7.27;4.47;;;22.00;97.30;;;;;;4949606;28;20807;-74
2023/06/30 06:36:37;;;;;;;9.40;4.90;;;22.00;97.30;;;;;;4953041;29;20439;-74
2023/06/30 06:39:03;;;;;;;8.77;3.80;;;22.10;97.30;;;;;;4955675;28;20191;-74
2023/06/30 06:41:29;;;;;;;9.10;4.90;;;22.10;97.30;;;;;;4954665;28;20435;-74
2023/06/30 06:43:54;;;;;;;6.27;4.37;;;22.10;97.30;;;;;;4953409;29;20716;-74
2023/06/30 06:46:20;;;;;;;12.17;5.47;;;22.10;97.30;;;;;;4954227;28;20183;-74
2023/06/30 06:48:45;;;;;;;7.37;4.77;;;22.10;97.30;;;;;;4954222;28;20270;-74
2023/06/30 06:51:11;;;;;;;5.43;4.53;;;22.10;97.30;;;;;;4953657;28;20594;-74
2023/06/30 06:53:37;;;;;;;10.33;5.87;;;22.10;97.30;;;;;;4952975;28;20667;-73
2023/06/30 06:56:04;;;;;;;9.50;6.47;;;22.10;97.30;;;;;;4953927;28;20429;-73
2023/06/30 06:58:31;;;;;;;10.30;6.47;;;22.10;97.30;;;;;;4954149;28;20238;-73
2023/06/30 07:00:57;;;;;;;7.70;5.87;;;22.20;97.30;;;;;;4952431;28;20454;-73
2023/06/30 07:03:23;;;;;;;18.93;8.00;;;22.20;97.30;;;;;;4953829;28;20529;-73
2023/06/30 07:05:49;;;;;;;25.13;9.10;;;22.30;97.30;;;;;;4957217;28;20432;-73
2023/06/30 07:08:16;;;;;;;9.17;6.90;;;22.30;97.30;;;;;;4953562;28;20203;-73
2023/06/30 07:10:44;;;;;;;11.77;6.97;;;22.30;97.30;;;;;;4953749;28;20305;-73
2023/06/30 07:13:10;;;;;;;17.90;7.70;;;22.20;97.30;;;;;;4952403;28;20430;-73
2023/06/30 07:15:35;;;;;;;10.30;6.57;;;22.20;97.30;;;;;;4952525;29;20473;-73
2023/06/30 07:18:01;;;;;;;11.60;7.03;;;22.30;97.30;;;;;;4953271;28;20581;-73
2023/06/30 07:20:27;;;;;;;11.17;6.30;;;22.30;97.30;;;;;;4953479;28;20294;-74
2023/06/30 07:22:54;;;;;;;10.80;7.37;;;22.30;97.30;;;;;;4952982;28;20679;-73
2023/06/30 07:25:20;;;;;;;14.07;8.20;;;22.30;97.30;;;;;;4952165;29;21026;-73
2023/06/30 07:27:53;;;;;;;17.53;6.90;;;22.30;97.30;;;;;;4953452;28;20513;-75
2023/06/30 07:30:20;;;;;;;15.10;8.90;;;22.30;97.30;;;;;;4953255;28;20277;-74
2023/06/30 07:32:46;;;;;;;12.97;6.83;;;22.30;97.30;;;;;;4953197;28;20415;-73
2023/06/30 07:35:12;;;;;;;12.63;5.67;;;22.30;97.30;;;;;;4953145;28;20897;-76
2023/06/30 07:37:38;;;;;;;8.70;5.67;;;22.30;97.30;;;;;;4951800;29;20195;-76
2023/06/30 07:40:04;;;;;;;8.30;4.90;;;22.40;97.30;;;;;;4953068;28;20183;-76
2023/06/30 07:42:29;;;;;;;22.60;6.60;;;22.40;97.30;;;;;;4951687;29;20493;-76
2023/06/30 07:44:55;;;;;;;7.43;6.27;;;22.40;97.30;;;;;;4951899;28;20446;-75
2023/06/30 07:47:20;;;;;;;12.93;6.70;;;22.30;97.30;;;;;;4951517;28;20730;-76
2023/06/30 07:49:46;;;;;;;13.07;6.93;;;22.30;97.30;;;;;;4953275;28;20184;-75
2023/06/30 07:52:11;;;;;;;7.87;5.30;;;22.30;97.30;;;;;;4951182;28;20199;-75
2023/06/30 07:54:37;;;;;;;15.60;6.00;;;22.40;97.30;;;;;;4951736;29;20737;-76
2023/06/30 07:57:03;;;;;;;22.53;7.90;;;22.40;97.30;;;;;;4953197;28;20183;-76
2023/06/30 07:59:28;;;;;;;10.40;5.93;;;22.40;97.30;;;;;;4952849;28;20184;-75
2023/06/30 08:01:54;;;;;;;13.20;8.03;;;22.40;97.30;;;;;;4952685;28;20293;-75
2023/06/30 08:04:21;;;;;;;9.20;7.60;;;22.40;97.30;;;;;;4951447;29;20195;-75
2023/06/30 08:06:47;;;;;;;18.90;6.97;;;22.50;97.30;;;;;;4951479;29;20183;-75
2023/06/30 08:09:13;;;;;;;15.90;8.47;;;22.50;97.30;;;;;;4951125;29;20445;-76
2023/06/30 08:11:38;;;;;;;12.07;7.63;;;22.60;97.30;;;;;;4952543;28;20290;-75
2023/06/30 08:14:04;;;;;;;13.17;9.03;;;22.60;97.30;;;;;;4950966;29;20570;-76
2023/06/30 08:16:30;;;;;;;14.73;8.27;;;22.70;97.30;;;;;;4951082;29;20271;-75
2023/06/30 08:18:55;;;;;;;12.57;8.60;;;22.70;97.30;;;;;;4952511;28;20187;-76
2023/06/30 08:21:21;;;;;;;8.97;6.03;;;22.70;97.30;;;;;;4952198;28;20242;-75
2023/06/30 08:23:47;;;;;;;10.03;6.90;;;22.80;97.30;;;;;;4952587;28;20462;-75
2023/06/30 08:26:13;;;;;;;9.43;5.37;;;22.80;97.30;;;;;;4952420;28;20195;-75
2023/06/30 08:28:38;;;;;;;10.63;6.13;;;22.90;97.30;;;;;;4950907;29;20238;-76
2023/06/30 08:31:04;;;;;;;14.00;7.50;;;22.90;97.30;;;;;;4952529;28;20225;-75
2023/06/30 08:33:29;;;;;;;10.77;6.40;;;23.00;97.30;;;;;;4950922;29;20670;-76
2023/06/30 08:35:55;;;;;;;11.60;6.27;;;23.00;97.30;;;;;;4950924;29;20726;-78
2023/06/30 08:38:21;;;;;;;12.47;5.67;;;23.00;97.30;;;;;;4952129;28;20560;-75
2023/06/30 08:40:47;;;;;;;11.90;7.47;;;23.00;97.30;;;;;;4952456;28;20294;-75
2023/06/30 08:43:12;;;;;;;10.97;8.00;;;23.20;97.30;;;;;;4950639;29;20281;-76
2023/06/30 08:45:48;;;;;;;16.87;9.23;;;23.30;97.30;;;;;;4950733;29;20193;-76
2023/06/30 08:48:18;;;;;;;12.67;7.97;;;23.40;97.30;;;;;;4951825;28;20238;-76
2023/06/30 08:50:44;;;;;;;20.60;7.80;;;23.40;97.30;;;;;;4950607;28;20809;-75
2023/06/30 08:53:10;;;;;;;9.67;5.43;;;23.40;97.30;;;;;;4951664;28;21005;-75
2023/06/30 08:55:36;;;;;;;19.70;10.70;;;23.40;97.30;;;;;;4951764;28;20411;-75
2023/06/30 08:58:02;;;;;;;16.57;8.83;;;23.50;97.30;;;;;;4951287;28;20192;-75
2023/06/30 09:00:27;;;;;;;13.93;8.30;;;23.50;97.30;;;;;;4950385;28;20509;-75
2023/06/30 09:02:55;;;;;;;15.03;9.33;;;23.50;97.30;;;;;;4951836;28;20198;-75
2023/06/30 09:05:23;;;;;;;17.80;7.00;;;23.50;97.30;;;;;;4950477;29;20595;-76
2023/06/30 09:07:56;;;;;;;15.30;6.50;;;23.50;97.30;;;;;;4950338;29;20430;-75
2023/06/30 09:10:26;;;;;;;16.63;6.10;;;23.50;97.30;;;;;;4949912;28;20505;-76
2023/06/30 09:12:54;;;;;;;12.30;7.17;;;23.60;97.30;;;;;;4951620;28;20478;-75
2023/06/30 09:15:20;;;;;;;9.47;6.23;;;23.60;97.30;;;;;;4950282;29;20469;-74
2023/06/30 09:17:46;;;;;;;10.33;6.53;;;23.50;97.30;;;;;;4951298;28;20789;-74
2023/06/30 09:20:12;;;;;;;14.10;6.10;;;23.50;97.30;;;;;;4951440;28;20411;-74
2023/06/30 09:22:42;;;;;;;9.80;5.20;;;23.60;97.30;;;;;;4949315;29;20239;-74
2023/06/30 09:25:26;;;;;;;25.03;8.17;;;23.60;97.30;;;;;;4951589;28;20444;-74
2023/06/30 09:27:55;;;;;;;6.80;5.23;;;23.70;97.10;;;;;;4951231;28;20421;-74
2023/06/30 09:30:45;;;;;;;12.30;7.63;;;23.70;97.10;;;;;;4949676;28;20497;-74
2023/06/30 09:33:13;;;;;;;9.93;6.23;;;23.80;97.30;;;;;;4950820;28;20419;-74
2023/06/30 09:35:40;;;;;;;8.80;6.33;;;23.80;97.20;;;;;;4949632;29;20435;-74
2023/06/30 09:38:14;;;;;;;12.87;7.00;;;23.80;97.30;;;;;;4949768;29;20445;-75
2023/06/30 09:40:50;;;;;;;23.77;7.00;;;23.80;96.80;;;;;;4951013;28;20513;-75
2023/06/30 09:43:23;;;;;;;10.70;6.10;;;23.70;96.70;;;;;;4950840;28;20429;-75
2023/06/30 09:45:56;;;;;;;11.33;5.90;;;23.70;96.90;;;;;;4949545;29;20466;-75
2023/06/30 09:48:38;;;;;;;8.93;6.30;;;23.60;96.80;;;;;;4949143;29;20431;-74
2023/06/30 09:51:06;;;;;;;17.43;7.57;;;23.60;96.70;;;;;;4950880;28;20607;-75
2023/06/30 09:53:40;;;;;;;10.63;6.00;;;23.50;96.80;;;;;;4950917;28;20422;-74
2023/06/30 09:56:18;;;;;;;12.83;7.63;;;23.50;96.90;;;;;;4950907;28;20477;-74
2023/06/30 09:58:45;;;;;;;7.73;6.10;;;23.40;97.20;;;;;;4949650;29;20423;-74
2023/06/30 10:01:11;;;;;;;19.33;6.63;;;23.40;97.30;;;;;;4949394;28;20446;-73
2023/06/30 10:03:57;;;;;;;19.53;8.37;;;23.30;97.30;;;;;;4950549;28;20423;-74
2023/06/30 10:06:23;;;;;;;12.90;7.10;;;23.30;97.30;;;;;;4949101;29;20198;-74
2023/06/30 10:08:53;;;;;;;19.20;8.40;;;23.20;97.30;;;;;;4948608;28;20431;-73
2023/06/30 10:11:22;;;;;;;18.80;7.17;;;23.10;97.30;;;;;;4949288;28;20482;-74
2023/06/30 10:13:50;;;;;;;17.30;9.17;;;23.00;97.30;;;;;;4950691;28;20442;-73
2023/06/30 10:16:18;;;;;;;20.27;7.93;;;22.90;97.30;;;;;;4950851;28;20423;-73
2023/06/30 10:18:46;;;;;;;13.40;8.40;;;22.80;97.30;;;;;;4950528;28;20513;-72
2023/06/30 10:21:12;;;;;;;17.80;8.57;;;22.70;97.30;;;;;;4949423;28;20482;-72
2023/06/30 10:23:39;;;;;;;15.40;8.87;;;22.60;97.30;;;;;;4950695;28;20575;-73
2023/06/30 10:26:06;;;;;;;24.03;8.33;;;22.50;97.30;;;;;;4949812;29;20195;-74
2023/06/30 10:28:35;;;;;;;19.70;8.33;;;22.50;97.30;;;;;;4949186;29;20517;-73
2023/06/30 10:31:02;;;;;;;23.30;9.97;;;22.50;97.30;;;;;;4949452;28;20683;-73
2023/06/30 10:33:28;;;;;;;13.10;8.43;;;22.50;97.30;;;;;;4950057;28;20566;-73
2023/06/30 10:35:54;;;;;;;17.00;9.80;;;22.50;97.30;;;;;;4950373;28;20525;-74
2023/06/30 10:38:20;;;;;;;15.53;9.20;;;22.60;97.30;;;;;;4950297;28;20186;-73
2023/06/30 10:40:46;;;;;;;19.40;9.43;;;22.60;97.30;;;;;;4950374;28;20453;-76
2023/06/30 10:43:13;;;;;;;13.50;8.40;;;22.50;97.30;;;;;;4948976;29;20434;-76
2023/06/30 10:46:03;;;;;;;23.30;6.90;;;22.50;97.30;;;;;;4949377;29;20194;-78
2023/06/30 10:48:29;;;;;;;16.17;7.30;;;22.50;97.30;;;;;;4950051;28;20462;-76
2023/06/30 10:50:56;;;;;;;26.37;10.07;;;22.40;97.30;;;;;;4949026;28;20525;-80
2023/06/30 10:53:21;;;;;;;21.67;10.73;;;22.40;97.30;;;;;;4949146;29;20191;-78
2023/06/30 10:55:47;;;;;;;15.57;7.40;;;22.30;97.30;;;;;;4950585;28;20452;-78
2023/06/30 10:58:23;;;;;;;21.13;9.80;;;22.30;97.30;;;;;;4948870;29;20189;-76
2023/06/30 11:01:03;;;;;;;16.83;6.67;;;22.20;97.30;;;;;;4948847;28;20457;-67
2023/06/30 11:03:55;;;;;;;22.73;10.30;;;22.20;97.30;;;;;;4950513;28;20439;-75
2023/06/30 11:06:21;;;;;;;27.00;9.27;;;22.20;97.30;;;;;;4949944;28;20927;-72
2023/06/30 11:09:08;;;;;;;13.93;10.40;;;22.20;97.30;;;;;;4948680;29;20434;-73
2023/06/30 11:11:50;;;;;;;36.30;9.47;;;22.20;97.30;;;;;;4950225;28;20293;-73
2023/06/30 11:14:30;;;;;;;17.80;8.83;;;22.20;97.30;;;;;;4948466;29;20938;-77
2023/06/30 11:17:06;;;;;;;22.80;10.70;;;22.10;97.30;;;;;;4949078;29;20502;-79
2023/06/30 11:19:32;;;;;;;21.03;8.73;;;22.10;97.30;;;;;;4948429;29;20461;-75
2023/06/30 11:22:29;;;;;;;53.07;11.07;;;22.10;97.30;;;;;;4952916;28;20502;-77
2023/06/30 11:24:55;;;;;;;14.23;7.20;;;22.00;97.30;;;;;;4947490;29;20507;-73
2023/06/30 11:27:21;;;;;;;14.90;8.50;;;22.00;97.30;;;;;;4953530;28;21019;-76
2023/06/30 11:29:50;;;;;;;23.20;8.33;;;21.90;97.30;;;;;;4952156;29;20211;-75
2023/06/30 11:32:32;;;;;;;16.83;9.50;;;21.80;97.30;;;;;;4952052;28;20199;-77
2023/06/30 11:35:01;;;;;;;13.00;6.43;;;21.80;97.30;;;;;;4953485;28;20418;-73
2023/06/30 11:37:27;;;;;;;10.80;6.30;;;21.70;97.30;;;;;;4953369;28;20447;-76
2023/06/30 11:39:54;;;;;;;14.70;8.43;;;21.70;97.30;;;;;;4951900;29;20950;-76
2023/06/30 11:42:20;;;;;;;15.10;9.00;;;21.70;97.30;;;;;;4953223;28;20210;-77
2023/06/30 11:44:48;;;;;;;14.93;6.13;;;21.70;97.30;;;;;;4952047;29;20434;-76
2023/06/30 11:47:15;;;;;;;15.57;7.30;;;21.70;97.30;;;;;;4953207;28;20455;-75
2023/06/30 11:49:41;;;;;;;14.20;9.10;;;21.60;97.30;;;;;;4951860;29;20426;-74
2023/06/30 11:52:06;;;;;;;15.27;7.50;;;21.60;97.30;;;;;;4953074;28;20481;-76
2023/06/30 11:54:33;;;;;;;9.33;5.80;;;21.60;97.30;;;;;;4952932;28;20183;-75
2023/06/30 11:56:59;;;;;;;13.30;6.07;;;21.60;97.30;;;;;;4953008;28;20183;-70
2023/06/30 11:59:25;;;;;;;13.93;6.70;;;21.60;97.30;;;;;;4952963;28;20415;-72
2023/06/30 12:01:51;;;;;;;14.73;5.30;;;21.60;97.30;;;;;;4951919;28;20791;-74
2023/06/30 12:04:17;;;;;;;12.23;5.77;;;21.60;97.30;;;;;;4952873;28;20510;-71
2023/06/30 12:06:43;;;;;;;9.60;4.90;;;21.50;97.30;;;;;;4953556;28;20956;-73
2023/06/30 12:09:09;;;;;;;9.27;5.07;;;21.50;97.30;;;;;;4951692;29;20191;-72
2023/06/30 12:11:35;;;;;;;12.80;5.10;;;21.40;97.30;;;;;;4952372;28;20473;-74
2023/06/30 12:14:07;;;;;;;14.23;5.13;;;21.30;97.30;;;;;;4952438;28;20675;-76
2023/06/30 12:16:41;;;;;;;14.47;4.43;;;21.20;97.30;;;;;;4952645;28;20678;-74
2023/06/30 12:19:08;;;;;;;10.90;5.17;;;21.20;97.30;;;;;;4951502;29;20809;-76
2023/06/30 12:21:35;;;;;;;8.90;4.20;;;21.10;97.30;;;;;;4952294;28;20550;-70
2023/06/30 12:24:01;;;;;;;11.50;6.13;;;21.10;97.30;;;;;;4952484;28;20481;-73
2023/06/30 12:26:27;;;;;;;7.60;4.70;;;21.10;97.30;;;;;;4952163;28;20513;-74
2023/06/30 12:28:52;;;;;;;15.80;5.77;;;21.00;97.30;;;;;;4952528;28;20797;-74
2023/06/30 12:31:31;;;;;;;6.40;4.00;;;21.10;97.30;;;;;;4950792;28;20219;-74
2023/06/30 12:33:57;;;;;;;9.43;5.33;;;21.10;97.30;;;;;;4950948;29;20186;-73
2023/06/30 12:36:27;;;;;;;6.83;4.40;;;21.20;97.30;;;;;;4950331;29;20428;-75
2023/06/30 12:38:52;;;;;;;15.40;5.67;;;21.20;97.30;;;;;;4950935;28;20184;-75
2023/06/30 12:41:19;;;;;;;7.60;3.90;;;21.40;97.30;;;;;;4952009;28;20450;-73
2023/06/30 12:43:45;;;;;;;7.47;3.53;;;21.50;97.30;;;;;;4950859;29;20667;-73
2023/06/30 12:46:10;;;;;;;8.77;4.33;;;21.50;97.30;;;;;;4948041;28;20430;-73
2023/06/30 12:48:36;;;;;;;7.30;4.20;;;21.50;97.30;;;;;;4963049;28;20175;-75
2023/06/30 12:51:01;;;;;;;3.63;3.43;;;21.60;97.30;;;;;;4941839;28;20199;-71
2023/06/30 12:53:27;;;;;;;7.10;3.90;;;21.50;97.30;;;;;;4941961;28;20211;-71
2023/06/30 12:55:52;;;;;;;6.17;3.47;;;21.50;97.30;;;;;;4950779;28;20179;-71
2023/06/30 12:58:18;;;;;;;9.00;4.90;;;21.40;97.30;;;;;;4967492;28;20187;-71
2023/06/30 13:00:43;;;;;;;4.77;3.40;;;21.30;97.30;;;;;;4951377;28;20219;-72
2023/06/30 13:03:10;;;;;;;4.27;3.47;;;21.20;97.30;;;;;;4954279;28;20179;-73
2023/06/30 13:05:36;;;;;;;5.00;3.20;;;21.20;97.30;;;;;;4941117;28;20481;-73
2023/06/30 13:08:02;;;;;;;5.57;3.43;;;21.10;97.30;;;;;;4934173;28;20423;-74
2023/06/30 13:10:27;;;;;;;2.43;2.00;;;21.10;97.30;;;;;;4971384;28;20466;-72
2023/06/30 13:12:53;;;;;;;9.73;4.43;;;21.00;97.30;;;;;;4974278;28;20175;-71
2023/06/30 13:15:18;;;;;;;5.63;3.37;;;21.00;97.30;;;;;;4972657;28;20536;-73
2023/06/30 13:17:44;;;;;;;9.13;4.13;;;21.00;97.30;;;;;;4973416;28;20179;-73
2023/06/30 13:20:09;;;;;;;7.93;4.03;;;20.90;97.30;;;;;;4948373;28;20620;-69
2023/06/30 13:22:36;;;;;;;10.67;5.33;;;20.90;97.30;;;;;;4965978;28;20305;-71
2023/06/30 13:25:01;;;;;;;8.73;3.93;;;20.90;97.30;;;;;;4951449;28;20187;-71
2023/06/30 13:27:27;;;;;;;6.33;3.57;;;20.90;97.30;;;;;;4949893;29;20437;-73
2023/06/30 13:29:53;;;;;;;9.73;4.37;;;20.80;97.30;;;;;;4951124;28;20438;-72
2023/06/30 13:32:18;;;;;;;14.60;5.53;;;20.80;97.30;;;;;;4946833;28;20199;-75
2023/06/30 13:34:45;;;;;;;15.07;5.50;;;20.80;97.30;;;;;;4961002;28;20725;-74
2023/06/30 13:37:11;;;;;;;8.07;4.33;;;20.70;97.30;;;;;;4958946;28;20183;-75
2023/06/30 13:39:37;;;;;;;14.33;6.97;;;20.70;97.30;;;;;;4952441;28;20423;-76
2023/06/30 13:42:03;;;;;;;8.20;4.03;;;20.70;97.30;;;;;;4947447;28;20627;-76
2023/06/30 13:44:31;;;;;;;13.33;7.20;;;20.60;97.30;;;;;;4967517;28;20187;-76
2023/06/30 13:46:56;;;;;;;14.80;6.87;;;20.60;97.30;;;;;;4945948;28;20577;-76
2023/06/30 13:49:22;;;;;;;6.63;3.90;;;20.60;97.30;;;;;;4951539;28;20461;-76
2023/06/30 13:51:47;;;;;;;13.57;5.20;;;20.50;97.30;;;;;;4958286;28;20694;-76
2023/06/30 13:54:13;;;;;;;8.13;6.20;;;20.60;97.30;;;;;;4952770;28;20187;-76
2023/06/30 13:56:38;;;;;;;12.70;6.10;;;20.50;97.30;;;;;;4947332;28;20251;-76
2023/06/30 13:59:04;;;;;;;10.53;5.40;;;20.50;97.30;;;;;;4953778;28;20846;-75
2023/06/30 14:01:29;;;;;;;12.53;7.00;;;20.50;97.30;;;;;;4970428;28;20579;-75
2023/06/30 14:03:55;;;;;;;8.80;5.13;;;20.50;97.30;;;;;;4944845;29;20698;-76
2023/06/30 14:06:20;;;;;;;15.23;6.73;;;20.50;97.30;;;;;;4945210;29;20409;-76
2023/06/30 14:08:46;;;;;;;13.90;5.83;;;20.50;97.30;;;;;;4951611;28;20186;-75
2023/06/30 14:11:17;;;;;;;6.50;3.40;;;20.40;97.30;;;;;;4959375;28;20214;-79
2023/06/30 14:13:43;;;;;;;9.30;5.57;;;20.30;97.30;;;;;;4958472;28;20483;-77
2023/06/30 14:16:08;;;;;;;7.37;4.37;;;20.20;97.30;;;;;;4975687;28;20985;-77
2023/06/30 14:18:34;;;;;;;3.23;2.50;;;20.10;97.30;;;;;;4956479;28;20418;-75
2023/06/30 14:21:01;;;;;;;3.17;2.30;;;20.00;97.30;;;;;;4974051;28;20226;-78
2023/06/30 14:23:27;;;;;;;7.00;2.80;;;19.90;97.30;;;;;;4947884;28;20187;-79
2023/06/30 14:25:52;;;;;;;8.83;5.47;;;19.80;97.30;;;;;;4953503;28;20426;-77
2023/06/30 14:28:18;;;;;;;3.47;2.60;;;19.80;97.30;;;;;;4970947;28;20414;-77
2023/06/30 14:30:44;;;;;;;7.23;3.77;;;19.70;97.30;;;;;;4955512;28;20849;-76
2023/06/30 14:33:09;;;;;;;4.27;3.00;;;19.60;97.30;;;;;;4962739;28;20188;-77
2023/06/30 14:35:35;;;;;;;10.63;2.90;;;19.60;97.30;;;;;;4949304;29;20186;-78
2023/06/30 14:38:00;;;;;;;4.07;3.23;;;19.60;97.30;;;;;;4941645;28;20187;-76
2023/06/30 14:40:29;;;;;;;6.67;3.73;;;19.60;97.30;;;;;;4942376;29;20199;-78
2023/06/30 14:42:57;;;;;;;4.40;2.17;;;19.70;97.30;;;;;;4944512;29;20182;-76
2023/06/30 14:45:23;;;;;;;4.10;3.20;;;19.70;97.30;;;;;;4947236;28;20418;-78
2023/06/30 14:47:50;;;;;;;4.90;3.67;;;19.70;97.30;;;;;;4938728;29;20506;-78
2023/06/30 14:50:16;;;;;;;3.90;2.57;;;19.70;97.30;;;;;;4937220;29;20463;-77
2023/06/30 14:52:41;;;;;;;3.90;2.90;;;19.60;97.30;;;;;;4945130;28;20428;-75
2023/06/30 14:55:07;;;;;;;4.93;4.00;;;19.60;97.30;;;;;;4930896;29;20184;-77
2023/06/30 14:57:33;;;;;;;3.60;3.30;;;19.60;97.30;;;;;;4944347;29;20213;-79
2023/06/30 14:59:58;;;;;;;4.87;3.20;;;19.50;97.30;;;;;;4945341;29;20462;-78
2023/06/30 15:02:24;;;;;;;3.73;2.80;;;19.40;97.30;;;;;;4946384;28;20315;-79
2023/06/30 15:04:49;;;;;;;5.30;2.87;;;19.40;97.30;;;;;;4948344;29;20193;-75
2023/06/30 15:07:15;;;;;;;2.47;2.33;;;19.30;97.30;;;;;;4949318;29;20183;-76
2023/06/30 15:09:41;;;;;;;2.73;2.53;;;19.20;97.30;;;;;;4949562;28;20461;-77
2023/06/30 15:12:07;;;;;;;3.30;2.63;;;19.20;97.30;;;;;;4967064;28;20215;-76
2023/06/30 15:14:33;;;;;;;5.70;3.30;;;19.20;97.30;;;;;;4947615;28;20425;-76
2023/06/30 15:16:59;;;;;;;3.47;3.27;;;19.20;97.30;;;;;;4947893;28;20443;-74
2023/06/30 15:19:24;;;;;;;4.30;4.00;;;19.20;97.30;;;;;;4945866;29;20182;-76
2023/06/30 15:21:50;;;;;;;10.63;3.20;;;19.30;97.30;;;;;;4949768;28;20235;-77
2023/06/30 15:24:16;;;;;;;2.70;2.30;;;19.30;97.30;;;;;;4947617;28;20266;-75
2023/06/30 15:26:43;;;;;;;15.93;3.23;;;19.30;97.30;;;;;;4965149;28;20441;-75
2023/06/30 15:29:09;;;;;;;1.57;1.47;;;19.30;97.30;;;;;;4960925;28;20769;-74
2023/06/30 15:31:34;;;;;;;2.87;2.27;;;19.30;97.30;;;;;;4943017;28;20475;-74
2023/06/30 15:34:00;;;;;;;3.40;1.93;;;19.40;97.30;;;;;;4953344;28;20193;-75
2023/06/30 15:36:25;;;;;;;32.37;2.80;;;19.40;97.30;;;;;;4952846;28;20187;-75
2023/06/30 15:38:51;;;;;;;2.10;1.80;;;19.50;97.30;;;;;;4951019;28;20183;-75
2023/06/30 15:41:16;;;;;;;13.00;4.73;;;19.60;97.30;;;;;;4951521;29;20254;-75
2023/06/30 15:43:42;;;;;;;3.07;2.50;;;19.70;97.30;;;;;;4951850;28;20206;-75
2023/06/30 15:46:07;;;;;;;4.63;3.37;;;19.70;97.30;;;;;;4949765;29;20190;-74
2023/06/30 15:48:33;;;;;;;3.97;2.77;;;19.70;97.30;;;;;;4950081;28;20198;-75
2023/06/30 15:50:58;;;;;;;4.23;2.33;;;19.80;97.30;;;;;;4950506;28;20238;-73
2023/06/30 15:53:24;;;;;;;3.13;2.50;;;19.80;97.30;;;;;;4949763;28;20183;-75
2023/06/30 15:55:49;;;;;;;8.97;2.97;;;19.80;97.30;;;;;;4951909;28;20194;-72
2023/06/30 15:58:15;;;;;;;1.80;1.70;;;19.80;97.30;;;;;;4951441;29;20187;-75
2023/06/30 16:00:41;;;;;;;4.53;2.83;;;19.80;97.30;;;;;;4952725;28;20214;-73
2023/06/30 16:03:06;;;;;;;3.10;2.80;;;19.90;97.30;;;;;;4952481;28;20195;-75
2023/06/30 16:05:31;;;;;;;4.03;2.27;;;19.90;97.30;;;;;;4950641;29;20647;-75
2023/06/30 16:07:57;;;;;;;3.03;2.37;;;20.00;97.30;;;;;;4950757;28;20183;-74
2023/06/30 16:10:23;;;;;;;3.93;2.27;;;20.00;97.30;;;;;;4952860;28;20297;-75
2023/06/30 16:12:48;;;;;;;3.73;2.97;;;20.00;97.30;;;;;;4944842;29;20221;-74
2023/06/30 16:15:14;;;;;;;3.10;2.77;;;20.00;97.30;;;;;;4953568;28;20179;-76
2023/06/30 16:17:39;;;;;;;3.67;2.40;;;20.00;97.30;;;;;;4950566;28;20652;-75
2023/06/30 16:20:06;;;;;;;6.67;3.03;;;20.00;97.30;;;;;;4950002;28;20214;-75
2023/06/30 16:22:32;;;;;;;3.70;2.20;;;20.10;97.30;;;;;;4949674;28;20691;-75
2023/06/30 16:24:57;;;;;;;2.83;1.90;;;20.10;97.30;;;;;;4948518;29;20433;-75
2023/06/30 16:27:23;;;;;;;2.83;2.67;;;20.10;97.30;;;;;;4948363;29;20187;-75
2023/06/30 16:29:50;;;;;;;1.87;1.87;;;20.10;97.30;;;;;;4948882;29;20194;-74
2023/06/30 16:32:16;;;;;;;1.60;1.50;;;20.00;97.30;;;;;;4949240;28;20219;-74
2023/06/30 16:34:41;;;;;;;3.33;2.30;;;20.00;97.30;;;;;;4950918;28;20427;-73
2023/06/30 16:37:07;;;;;;;1.97;1.50;;;20.00;97.30;;;;;;4949491;29;20279;-74
2023/06/30 16:39:34;;;;;;;4.90;2.23;;;19.90;97.30;;;;;;4951471;28;20191;-74
2023/06/30 16:42:00;;;;;;;5.27;2.17;;;19.90;97.30;;;;;;4952188;28;20195;-74
2023/06/30 16:44:29;;;;;;;2.57;2.07;;;19.90;97.30;;;;;;4951068;28;20426;-75
2023/06/30 16:46:55;;;;;;;2.77;2.60;;;19.90;97.30;;;;;;4951545;28;20436;-75